createdAt,value
2018-04-02T00:00:41.244Z,7.42
2018-04-02T00:01:41.403Z,7.40
2018-04-02T00:02:41.571Z,7.39
2018-04-02T00:03:41.908Z,7.35
2018-04-02T00:04:41.882Z,7.42
2018-04-02T00:05:42.045Z,7.37
2018-04-02T00:06:42.205Z,7.28
2018-04-02T00:07:42.374Z,7.34
2018-04-02T00:08:42.545Z,7.28
2018-04-02T00:09:42.713Z,7.37
2018-04-02T00:10:42.873Z,7.34
2018-04-02T00:11:43.032Z,7.39
2018-04-02T00:12:43.202Z,7.23
2018-04-02T00:13:43.385Z,7.25
2018-04-02T00:14:44.639Z,7.13
2018-04-02T00:18:08.795Z,7.07
2018-04-02T00:19:08.968Z,7.06
2018-04-02T00:20:09.183Z,7.05
2018-04-02T00:21:09.285Z,7.09
2018-04-02T00:22:09.455Z,7.03
2018-04-02T00:23:09.870Z,6.98
2018-04-02T00:24:09.806Z,6.85
2018-04-02T00:25:09.974Z,6.81
2018-04-02T00:26:10.273Z,6.70
2018-04-02T00:27:10.359Z,6.79
2018-04-02T00:28:10.523Z,6.81
2018-04-02T00:29:10.692Z,6.81
2018-04-02T00:30:10.854Z,6.87
2018-04-02T00:31:11.013Z,6.94
2018-04-02T00:32:11.186Z,6.98
2018-04-02T00:33:11.343Z,7.13
2018-04-02T00:34:11.503Z,6.99
2018-04-02T00:35:11.671Z,7.05
2018-04-02T00:36:11.871Z,6.92
2018-04-02T00:37:11.987Z,6.99
2018-04-02T00:38:12.166Z,6.91
2018-04-02T00:39:12.324Z,6.81
2018-04-02T00:40:12.595Z,6.76
2018-04-02T00:41:12.676Z,6.73
2018-04-02T00:42:12.830Z,6.74
2018-04-02T00:43:13.004Z,6.85
2018-04-02T00:44:13.145Z,6.95
2018-04-02T00:45:13.538Z,6.71
2018-04-02T00:46:13.468Z,6.73
2018-04-02T00:47:13.640Z,6.73
2018-04-02T00:48:13.961Z,6.71
2018-04-02T00:49:14.016Z,6.76
2018-04-02T00:50:14.189Z,6.74
2018-04-02T00:51:14.350Z,6.85
2018-04-02T00:52:15.357Z,6.89
2018-04-02T00:53:14.645Z,6.84
2018-04-02T00:54:14.809Z,6.84
2018-04-02T00:55:14.968Z,6.89
2018-04-02T00:56:15.129Z,6.84
2018-04-02T00:57:15.302Z,6.98
2018-04-02T00:58:15.938Z,6.95
2018-04-02T00:59:15.692Z,7.02
2018-04-02T01:00:16.369Z,7.02
2018-04-02T01:01:16.238Z,6.89
2018-04-02T01:02:16.288Z,6.81
2018-04-02T01:03:16.443Z,6.74
2018-04-02T01:04:16.610Z,6.81
2018-04-02T01:05:17.013Z,6.85
2018-04-02T01:06:16.978Z,6.91
2018-04-02T01:07:17.205Z,6.89
2018-04-02T01:08:17.254Z,6.85
2018-04-02T01:09:17.424Z,6.71
2018-04-02T01:10:17.598Z,6.70
2018-04-02T01:11:17.761Z,6.85
2018-04-02T01:12:17.921Z,6.87
2018-04-02T01:13:18.086Z,6.94
2018-04-02T01:14:18.251Z,6.94
2018-04-02T01:15:18.428Z,6.92
2018-04-02T01:16:18.584Z,7.07
2018-04-02T01:17:18.752Z,6.95
2018-04-02T01:18:19.131Z,6.94
2018-04-02T01:19:19.123Z,7.06
2018-04-02T01:20:19.296Z,6.98
2018-04-02T01:21:19.452Z,7.07
2018-04-02T01:22:19.622Z,7.06
2018-04-02T01:23:19.786Z,7.03
2018-04-02T01:24:19.948Z,6.99
2018-04-02T01:25:20.117Z,6.84
2018-04-02T01:26:20.284Z,6.87
2018-04-02T01:27:20.448Z,6.79
2018-04-02T01:28:20.607Z,6.91
2018-04-02T01:29:20.770Z,6.89
2018-04-02T01:30:20.936Z,6.97
2018-04-02T01:31:21.103Z,7.02
2018-04-02T01:32:21.259Z,7.02
2018-04-02T01:33:21.570Z,7.02
2018-04-02T01:34:22.080Z,7.10
2018-04-02T01:35:21.765Z,7.05
2018-04-02T01:36:21.924Z,6.98
2018-04-02T01:37:22.084Z,6.81
2018-04-02T01:38:22.251Z,6.85
2018-04-02T01:39:22.405Z,6.80
2018-04-02T01:40:22.571Z,6.91
2018-04-02T01:41:22.738Z,6.91
2018-04-02T01:42:22.888Z,6.92
2018-04-02T01:43:23.064Z,6.87
2018-04-02T01:44:23.217Z,6.87
2018-04-02T01:45:23.385Z,6.94
2018-04-02T01:46:23.553Z,6.85
2018-04-02T01:47:23.712Z,6.74
2018-04-02T01:48:23.876Z,6.85
2018-04-02T01:49:24.039Z,6.70
2018-04-02T01:50:24.196Z,6.80
2018-04-02T01:51:24.354Z,6.81
2018-04-02T01:52:24.514Z,6.87
2018-04-02T01:53:24.678Z,6.85
2018-04-02T01:54:24.846Z,6.85
2018-04-02T01:55:25.016Z,6.80
2018-04-02T01:56:25.177Z,6.85
2018-04-02T01:57:25.338Z,6.81
2018-04-02T01:58:25.500Z,6.81
2018-04-02T01:59:25.667Z,6.70
2018-04-02T02:00:25.830Z,6.85
2018-04-02T02:01:26.007Z,6.87
2018-04-02T02:02:26.155Z,6.73
2018-04-02T02:03:26.317Z,6.73
2018-04-02T02:04:26.480Z,6.71
2018-04-02T02:05:26.641Z,6.62
2018-04-02T02:06:26.804Z,6.76
2018-04-02T02:07:26.962Z,6.76
2018-04-02T02:08:27.129Z,6.71
2018-04-02T02:09:27.293Z,6.67
2018-04-02T02:10:27.454Z,6.71
2018-04-02T02:11:27.618Z,6.79
2018-04-02T02:12:27.790Z,6.70
2018-04-02T02:13:27.953Z,6.69
2018-04-02T02:14:28.115Z,6.69
2018-04-02T02:15:28.286Z,6.67
2018-04-02T02:16:28.445Z,6.79
2018-04-02T02:17:28.608Z,6.70
2018-04-02T02:18:28.789Z,6.58
2018-04-02T02:19:28.940Z,6.71
2018-04-02T02:20:29.103Z,6.66
2018-04-02T02:21:29.271Z,6.59
2018-04-02T02:22:29.433Z,6.56
2018-04-02T02:23:29.596Z,6.54
2018-04-02T02:24:29.770Z,6.44
2018-04-02T02:25:29.943Z,6.46
2018-04-02T02:26:30.112Z,6.61
2018-04-02T02:27:30.269Z,6.64
2018-04-02T02:28:30.438Z,6.58
2018-04-02T02:29:30.596Z,6.58
2018-04-02T02:30:30.756Z,6.58
2018-04-02T02:31:30.916Z,6.56
2018-04-02T02:32:31.079Z,6.44
2018-04-02T02:33:31.245Z,6.56
2018-04-02T02:34:31.400Z,6.66
2018-04-02T02:35:31.556Z,6.58
2018-04-02T02:36:31.727Z,6.64
2018-04-02T02:37:31.879Z,6.66
2018-04-02T02:38:32.046Z,6.70
2018-04-02T02:39:32.209Z,6.71
2018-04-02T02:40:32.365Z,6.66
2018-04-02T02:41:32.527Z,6.70
2018-04-02T02:42:32.691Z,6.70
2018-04-02T02:43:32.874Z,6.71
2018-04-02T02:44:33.033Z,6.73
2018-04-02T02:45:33.190Z,6.73
2018-04-02T02:46:33.358Z,6.69
2018-04-02T02:47:33.519Z,6.70
2018-04-02T02:48:33.697Z,6.71
2018-04-02T02:49:33.855Z,6.70
2018-04-02T02:50:34.019Z,6.85
2018-04-02T02:51:34.187Z,6.80
2018-04-02T02:52:34.346Z,6.70
2018-04-02T02:53:34.509Z,6.85
2018-04-02T02:54:34.668Z,6.80
2018-04-02T02:55:34.840Z,6.81
2018-04-02T02:56:35.007Z,6.69
2018-04-02T02:57:35.175Z,6.69
2018-04-02T02:58:35.339Z,6.85
2018-04-02T02:59:35.500Z,6.84
2018-04-02T03:00:35.663Z,6.77
2018-04-02T03:01:35.828Z,6.71
2018-04-02T03:02:35.994Z,6.74
2018-04-02T03:03:36.158Z,6.66
2018-04-02T03:04:36.318Z,6.74
2018-04-02T03:05:36.485Z,6.66
2018-04-02T03:06:36.648Z,6.64
2018-04-02T03:07:36.820Z,6.70
2018-04-02T03:08:36.983Z,6.67
2018-04-02T03:09:37.143Z,6.67
2018-04-02T03:10:37.306Z,6.67
2018-04-02T03:11:37.486Z,6.59
2018-04-02T03:12:37.650Z,6.56
2018-04-02T03:13:37.820Z,6.64
2018-04-02T03:14:37.980Z,6.61
2018-04-02T03:15:38.142Z,6.64
2018-04-02T03:16:38.289Z,6.61
2018-04-02T03:17:38.465Z,6.64
2018-04-02T03:18:38.619Z,6.62
2018-04-02T03:19:38.786Z,6.62
2018-04-02T03:20:38.958Z,6.66
2018-04-02T03:21:39.118Z,6.62
2018-04-02T03:22:39.285Z,6.69
2018-04-02T03:23:39.453Z,6.70
2018-04-02T03:24:39.613Z,6.69
2018-04-02T03:25:39.769Z,6.61
2018-04-02T03:26:40.021Z,6.66
2018-04-02T03:27:40.067Z,6.59
2018-04-02T03:28:40.230Z,6.62
2018-04-02T03:29:40.393Z,6.66
2018-04-02T03:30:40.542Z,6.61
2018-04-02T03:31:40.718Z,6.59
2018-04-02T03:32:40.868Z,6.61
2018-04-02T03:33:41.044Z,6.54
2018-04-02T03:34:41.203Z,6.48
2018-04-02T03:35:41.366Z,6.41
2018-04-02T03:36:41.525Z,6.36
2018-04-02T03:37:41.695Z,6.43
2018-04-02T03:38:41.855Z,6.48
2018-04-02T03:39:42.020Z,6.51
2018-04-02T03:40:42.178Z,6.37
2018-04-02T03:41:42.345Z,6.27
2018-04-02T03:42:42.518Z,6.25
2018-04-02T03:43:42.678Z,6.15
2018-04-02T03:44:42.859Z,6.17
2018-04-02T03:45:43.028Z,6.17
2018-04-02T03:46:43.176Z,6.21
2018-04-02T03:47:43.352Z,6.25
2018-04-02T03:48:43.502Z,6.37
2018-04-02T03:49:43.673Z,6.25
2018-04-02T03:50:43.847Z,6.36
2018-04-02T03:51:44.002Z,6.30
2018-04-02T03:52:44.184Z,6.28
2018-04-02T03:53:44.346Z,6.25
2018-04-02T03:54:44.504Z,6.34
2018-04-02T03:55:44.669Z,6.38
2018-04-02T03:56:44.831Z,6.36
2018-04-02T03:57:44.999Z,6.30
2018-04-02T03:58:45.162Z,6.34
2018-04-02T03:59:45.317Z,6.33
2018-04-02T04:00:45.483Z,6.33
2018-04-02T04:01:45.654Z,6.36
2018-04-02T04:02:45.808Z,6.36
2018-04-02T04:03:45.964Z,6.34
2018-04-02T04:04:46.137Z,6.31
2018-04-02T04:05:46.291Z,6.30
2018-04-02T04:06:46.450Z,6.34
2018-04-02T04:07:46.610Z,6.34
2018-04-02T04:08:46.779Z,6.37
2018-04-02T04:09:46.939Z,6.33
2018-04-02T04:10:47.095Z,6.38
2018-04-02T04:11:47.254Z,6.28
2018-04-02T04:12:47.415Z,6.37
2018-04-02T04:13:47.575Z,6.30
2018-04-02T04:14:47.742Z,6.33
2018-04-02T04:15:47.906Z,6.27
2018-04-02T04:16:48.067Z,6.37
2018-04-02T04:17:48.235Z,6.27
2018-04-02T04:18:48.402Z,6.08
2018-04-02T04:19:48.558Z,6.04
2018-04-02T04:20:48.721Z,6.00
2018-04-02T04:21:48.882Z,6.08
2018-04-02T04:22:49.043Z,5.93
2018-04-02T04:23:49.208Z,6.00
2018-04-02T04:24:49.368Z,6.03
2018-04-02T04:25:49.526Z,6.00
2018-04-02T04:26:49.709Z,5.97
2018-04-02T04:27:49.858Z,5.97
2018-04-02T04:28:50.026Z,5.93
2018-04-02T04:29:50.611Z,5.91
2018-04-02T04:30:50.526Z,5.93
2018-04-02T04:31:50.669Z,5.94
2018-04-02T04:32:50.812Z,5.83
2018-04-02T04:33:50.867Z,5.97
2018-04-02T04:34:51.029Z,6.08
2018-04-02T04:35:51.188Z,6.11
2018-04-02T04:36:51.345Z,6.11
2018-04-02T04:37:51.503Z,6.19
2018-04-02T04:38:51.682Z,6.15
2018-04-02T04:39:51.813Z,6.30
2018-04-02T04:40:51.970Z,6.15
2018-04-02T04:41:52.132Z,6.06
2018-04-02T04:42:52.293Z,6.00
2018-04-02T04:43:52.450Z,6.03
2018-04-02T04:44:52.618Z,6.12
2018-04-02T04:45:52.774Z,6.09
2018-04-02T04:46:52.953Z,6.17
2018-04-02T04:47:53.095Z,6.18
2018-04-02T04:48:53.255Z,6.14
2018-04-02T04:49:53.410Z,6.25
2018-04-02T04:50:53.569Z,6.19
2018-04-02T04:51:53.718Z,6.28
2018-04-02T04:52:53.872Z,6.12
2018-04-02T04:53:54.036Z,6.12
2018-04-02T04:54:54.186Z,6.11
2018-04-02T04:55:54.343Z,5.97
2018-04-02T04:56:54.503Z,5.99
2018-04-02T04:57:54.682Z,6.01
2018-04-02T04:58:54.824Z,5.99
2018-04-02T04:59:54.977Z,5.99
2018-04-02T05:00:55.135Z,6.00
2018-04-02T05:01:55.293Z,6.00
2018-04-02T05:02:55.447Z,5.97
2018-04-02T05:03:55.598Z,5.99
2018-04-02T05:04:55.754Z,6.00
2018-04-02T05:05:55.918Z,5.86
2018-04-02T05:06:56.086Z,5.72
2018-04-02T05:07:56.239Z,5.71
2018-04-02T05:08:56.399Z,5.86
2018-04-02T05:09:56.556Z,5.79
2018-04-02T05:10:56.768Z,5.86
2018-04-02T05:11:56.882Z,6.00
2018-04-02T05:12:57.037Z,6.03
2018-04-02T05:13:57.188Z,6.06
2018-04-02T05:14:57.356Z,6.08
2018-04-02T05:15:57.511Z,6.08
2018-04-02T05:16:57.669Z,6.11
2018-04-02T05:17:57.825Z,6.15
2018-04-02T05:18:57.994Z,6.08
2018-04-02T05:19:58.148Z,6.15
2018-04-02T05:20:58.833Z,6.21
2018-04-02T05:21:58.428Z,6.14
2018-04-02T05:22:58.609Z,6.12
2018-04-02T05:23:58.765Z,6.08
2018-04-02T05:24:58.896Z,6.06
2018-04-02T05:25:59.050Z,5.90
2018-04-02T05:26:59.238Z,6.08
2018-04-02T05:27:59.397Z,5.96
2018-04-02T05:28:59.529Z,5.99
2018-04-02T05:29:59.724Z,6.03
2018-04-02T05:30:59.888Z,6.06
2018-04-02T05:32:00.019Z,5.97
2018-04-02T05:33:00.170Z,5.90
2018-04-02T05:34:00.303Z,5.78
2018-04-02T05:35:00.498Z,5.91
2018-04-02T05:36:00.635Z,5.93
2018-04-02T05:37:00.881Z,5.79
2018-04-02T05:38:01.027Z,5.83
2018-04-02T05:39:01.157Z,5.76
2018-04-02T05:40:01.327Z,5.74
2018-04-02T05:41:01.444Z,5.86
2018-04-02T05:42:01.642Z,5.90
2018-04-02T05:43:01.777Z,5.76
2018-04-02T05:44:01.952Z,5.74
2018-04-02T05:45:02.135Z,5.91
2018-04-02T05:46:02.364Z,5.93
2018-04-02T05:47:02.470Z,5.83
2018-04-02T05:48:02.615Z,5.85
2018-04-02T05:49:02.778Z,5.94
2018-04-02T05:50:02.914Z,6.00
2018-04-02T05:51:03.153Z,6.14
2018-04-02T05:52:03.262Z,6.12
2018-04-02T05:53:03.417Z,6.30
2018-04-02T05:54:03.594Z,6.11
2018-04-02T05:55:03.700Z,6.11
2018-04-02T05:56:03.897Z,6.11
2018-04-02T05:57:04.058Z,6.11
2018-04-02T05:58:04.160Z,6.11
2018-04-02T05:59:04.362Z,6.30
2018-04-02T06:00:04.490Z,6.30
2018-04-02T06:01:04.696Z,6.36
2018-04-02T06:02:04.802Z,6.34
2018-04-02T06:03:05.019Z,6.34
2018-04-02T06:04:05.183Z,6.41
2018-04-02T06:05:05.328Z,6.44
2018-04-02T06:06:05.464Z,6.49
2018-04-02T06:07:05.667Z,6.49
2018-04-02T06:08:05.781Z,6.62
2018-04-02T06:09:05.965Z,6.52
2018-04-02T06:10:06.126Z,6.38
2018-04-02T06:11:06.289Z,6.30
2018-04-02T06:12:06.560Z,6.38
2018-04-02T06:13:06.626Z,6.36
2018-04-02T06:14:06.823Z,6.36
2018-04-02T06:15:06.952Z,6.34
2018-04-02T06:16:07.148Z,6.30
2018-04-02T06:17:07.300Z,6.34
2018-04-02T06:18:07.424Z,6.38
2018-04-02T06:19:07.566Z,6.37
2018-04-02T06:20:07.718Z,6.49
2018-04-02T06:21:07.909Z,6.37
2018-04-02T06:22:08.063Z,6.38
2018-04-02T06:23:08.239Z,6.38
2018-04-02T06:24:08.377Z,6.55
2018-04-02T06:25:08.554Z,6.56
2018-04-02T06:26:08.737Z,6.64
2018-04-02T06:27:08.871Z,6.66
2018-04-02T06:28:09.072Z,6.64
2018-04-02T06:29:09.199Z,6.67
2018-04-02T06:30:09.354Z,6.70
2018-04-02T06:31:09.506Z,6.76
2018-04-02T06:32:09.702Z,6.76
2018-04-02T06:33:09.883Z,6.69
2018-04-02T06:34:10.018Z,6.84
2018-04-02T06:35:10.229Z,6.81
2018-04-02T06:36:10.378Z,6.84
2018-04-02T06:37:10.587Z,6.92
2018-04-02T06:38:10.689Z,6.95
2018-04-02T06:39:10.885Z,6.95
2018-04-02T06:40:11.037Z,7.06
2018-04-02T06:41:11.196Z,7.07
2018-04-02T06:42:11.320Z,7.02
2018-04-02T06:43:11.547Z,7.05
2018-04-02T06:44:11.697Z,6.99
2018-04-02T06:45:11.889Z,7.06
2018-04-02T06:46:12.032Z,7.09
2018-04-02T06:47:12.233Z,7.21
2018-04-02T06:48:12.367Z,7.07
2018-04-02T06:49:12.549Z,7.07
2018-04-02T06:50:12.670Z,7.03
2018-04-02T06:51:12.842Z,7.31
2018-04-02T06:52:13.015Z,7.50
2018-04-02T06:53:13.197Z,7.49
2018-04-02T06:54:13.342Z,7.45
2018-04-02T06:55:13.527Z,7.49
2018-04-02T06:56:13.678Z,7.55
2018-04-02T06:57:13.815Z,7.32
2018-04-02T06:58:13.991Z,7.43
2018-04-02T06:59:14.192Z,7.40
2018-04-02T07:00:14.337Z,7.39
2018-04-02T07:01:14.486Z,7.40
2018-04-02T07:02:14.641Z,7.42
2018-04-02T07:03:14.842Z,7.55
2018-04-02T07:04:14.989Z,7.52
2018-04-02T07:05:15.122Z,7.77
2018-04-02T07:06:15.279Z,7.86
2018-04-02T07:07:15.471Z,7.85
2018-04-02T07:08:15.645Z,8.04
2018-04-02T07:09:15.812Z,8.19
2018-04-02T07:10:15.934Z,8.19
2018-04-02T07:11:16.068Z,8.36
2018-04-02T07:12:16.244Z,8.36
2018-04-02T07:13:16.413Z,8.36
2018-04-02T07:14:16.559Z,8.37
2018-04-02T07:15:16.742Z,8.38
2018-04-02T07:16:16.873Z,8.50
2018-04-02T07:17:17.057Z,8.52
2018-04-02T07:18:17.210Z,8.55
2018-04-02T07:19:17.373Z,8.58
2018-04-02T07:20:17.510Z,8.59
2018-04-02T07:21:17.682Z,8.52
2018-04-02T07:22:17.906Z,8.38
2018-04-02T07:23:18.042Z,8.37
2018-04-02T07:24:18.204Z,8.15
2018-04-02T07:25:18.358Z,8.07
2018-04-02T07:26:18.510Z,8.12
2018-04-02T07:27:18.680Z,8.23
2018-04-02T07:28:18.856Z,8.16
2018-04-02T07:29:19.027Z,8.30
2018-04-02T07:30:19.188Z,8.50
2018-04-02T07:31:19.355Z,8.33
2018-04-02T07:32:19.536Z,8.43
2018-04-02T07:33:19.699Z,8.55
2018-04-02T07:34:19.867Z,8.34
2018-04-02T07:35:20.030Z,8.59
2018-04-02T07:36:20.199Z,8.65
2018-04-02T07:37:20.401Z,8.45
2018-04-02T07:38:20.529Z,8.58
2018-04-02T07:39:20.695Z,8.81
2018-04-02T07:40:20.866Z,9.05
2018-04-02T07:41:21.026Z,9.05
2018-04-02T07:42:21.197Z,9.15
2018-04-02T07:43:21.363Z,9.43
2018-04-02T07:44:21.536Z,9.75
2018-04-02T07:45:21.700Z,9.81
2018-04-02T07:46:21.863Z,9.89
2018-04-02T07:47:22.024Z,9.53
2018-04-02T07:48:22.188Z,9.90
2018-04-02T07:49:22.357Z,9.94
2018-04-02T07:50:23.436Z,9.93
2018-04-02T07:51:22.731Z,9.99
2018-04-02T07:52:22.894Z,10.12
2018-04-02T07:53:23.947Z,10.33
2018-04-02T07:54:23.228Z,10.22
2018-04-02T07:55:23.403Z,10.29
2018-04-02T07:56:23.568Z,10.29
2018-04-02T07:57:23.743Z,10.47
2018-04-02T07:58:23.909Z,10.85
2018-04-02T07:59:24.075Z,10.85
2018-04-02T08:00:24.971Z,11.21
2018-04-02T08:01:24.925Z,11.02
2018-04-02T08:02:24.614Z,11.22
2018-04-02T08:03:24.776Z,11.24
2018-04-02T08:04:24.960Z,10.91
2018-04-02T08:05:25.118Z,10.91
2018-04-02T08:06:25.274Z,10.91
2018-04-02T08:07:29.201Z,10.84
2018-04-02T08:08:26.858Z,10.82
2018-04-02T08:09:26.108Z,11.25
2018-04-02T08:10:26.012Z,11.09
2018-04-02T08:11:26.159Z,10.91
2018-04-02T08:12:26.374Z,11.02
2018-04-02T08:13:26.480Z,11.07
2018-04-02T08:14:26.639Z,11.21
2018-04-02T08:15:26.815Z,11.62
2018-04-02T08:16:26.979Z,11.65
2018-04-02T08:17:27.188Z,11.72
2018-04-02T08:18:27.355Z,12.50
2018-04-02T08:19:27.506Z,12.64
2018-04-02T08:20:27.653Z,12.71
2018-04-02T08:21:27.829Z,13.08
2018-04-02T08:22:27.971Z,13.25
2018-04-02T08:23:28.155Z,13.03
2018-04-02T08:24:28.301Z,13.62
2018-04-02T08:25:28.469Z,13.38
2018-04-02T08:26:28.627Z,13.39
2018-04-02T08:27:28.794Z,13.08
2018-04-02T08:28:28.952Z,13.26
2018-04-02T08:29:29.128Z,13.73
2018-04-02T08:30:29.300Z,13.95
2018-04-02T08:31:29.467Z,14.35
2018-04-02T08:32:29.656Z,14.50
2018-04-02T08:33:29.805Z,13.95
2018-04-02T08:34:29.986Z,13.71
2018-04-02T08:35:30.174Z,13.39
2018-04-02T08:36:30.360Z,13.55
2018-04-02T08:37:30.512Z,14.03
2018-04-02T08:38:30.683Z,14.06
2018-04-02T08:39:30.851Z,14.14
2018-04-02T08:40:31.021Z,13.66
2018-04-02T08:41:31.196Z,13.49
2018-04-02T08:42:31.366Z,13.64
2018-04-02T08:43:31.540Z,13.71
2018-04-02T08:44:31.704Z,13.67
2018-04-02T08:45:31.886Z,13.75
2018-04-02T08:46:32.046Z,13.30
2018-04-02T08:47:32.230Z,13.57
2018-04-02T08:48:32.397Z,13.51
2018-04-02T08:49:32.564Z,13.69
2018-04-02T08:50:32.734Z,13.29
2018-04-02T08:51:32.907Z,13.41
2018-04-02T08:52:33.081Z,13.46
2018-04-02T08:53:33.268Z,13.33
2018-04-02T08:54:34.180Z,13.82
2018-04-02T08:55:34.406Z,14.10
2018-04-02T08:56:33.874Z,14.03
2018-04-02T08:57:34.049Z,13.77
2018-04-02T08:58:34.266Z,13.77
2018-04-02T08:59:34.414Z,13.73
2018-04-02T09:00:34.587Z,13.96
2018-04-02T09:01:35.451Z,13.46
2018-04-02T09:02:34.887Z,13.59
2018-04-02T09:03:35.978Z,13.33
2018-04-02T09:04:35.260Z,13.44
2018-04-02T09:05:35.438Z,13.71
2018-04-02T09:06:35.609Z,13.95
2018-04-02T09:07:35.773Z,14.02
2018-04-02T09:08:35.946Z,14.03
2018-04-02T09:09:36.128Z,13.66
2018-04-02T09:10:36.298Z,14.03
2018-04-02T09:11:36.475Z,14.88
2018-04-02T09:12:36.640Z,14.89
2018-04-02T09:13:36.820Z,14.69
2018-04-02T09:14:36.985Z,14.81
2018-04-02T09:15:37.167Z,14.54
2018-04-02T09:16:37.339Z,14.39
2018-04-02T09:17:37.521Z,14.25
2018-04-02T09:18:37.701Z,14.20
2018-04-02T09:19:37.994Z,14.47
2018-04-02T09:20:38.089Z,15.78
2018-04-02T09:21:38.247Z,17.07
2018-04-02T09:22:38.434Z,17.74
2018-04-02T09:23:38.607Z,17.08
2018-04-02T09:24:38.802Z,16.49
2018-04-02T09:25:38.990Z,16.05
2018-04-02T09:26:39.888Z,15.41
2018-04-02T09:27:39.359Z,14.51
2018-04-02T09:28:39.672Z,16.20
2018-04-02T09:29:39.652Z,15.74
2018-04-02T09:30:39.835Z,16.42
2018-04-02T09:31:40.046Z,17.48
2018-04-02T09:32:40.196Z,18.42
2018-04-02T09:33:40.361Z,18.03
2018-04-02T09:34:40.542Z,18.87
2018-04-02T09:35:40.715Z,19.95
2018-04-02T09:36:40.901Z,20.18
2018-04-02T09:37:41.071Z,20.89
2018-04-02T09:38:41.243Z,18.75
2018-04-02T09:39:41.419Z,16.96
2018-04-02T09:40:41.597Z,16.81
2018-04-02T09:41:41.769Z,16.00
2018-04-02T09:42:41.944Z,15.17
2018-04-02T09:43:42.124Z,15.97
2018-04-02T09:44:42.312Z,16.93
2018-04-02T09:45:42.494Z,16.21
2018-04-02T09:46:42.654Z,15.53
2018-04-02T09:47:42.857Z,16.27
2018-04-02T09:48:43.030Z,17.54
2018-04-02T09:49:43.191Z,19.18
2018-04-02T09:50:43.362Z,20.18
2018-04-02T09:51:43.538Z,19.07
2018-04-02T09:52:43.714Z,17.55
2018-04-02T09:53:43.927Z,16.09
2018-04-02T09:54:44.073Z,16.94
2018-04-02T09:55:44.244Z,18.17
2018-04-02T09:56:44.422Z,19.48
2018-04-02T09:57:44.590Z,19.84
2018-04-02T09:58:44.766Z,19.11
2018-04-02T09:59:44.948Z,18.17
2018-04-02T10:00:45.118Z,17.08
2018-04-02T10:01:45.283Z,17.71
2018-04-02T10:02:45.468Z,17.16
2018-04-02T10:03:45.648Z,15.92
2018-04-02T10:04:45.855Z,15.34
2018-04-02T10:05:45.999Z,14.72
2018-04-02T10:06:46.190Z,14.64
2018-04-02T10:07:46.356Z,14.33
2018-04-02T10:08:46.535Z,14.18
2018-04-02T10:09:46.709Z,13.77
2018-04-02T10:10:46.897Z,13.49
2018-04-02T10:11:47.067Z,13.42
2018-04-02T10:12:47.245Z,13.03
2018-04-02T10:13:47.422Z,13.04
2018-04-02T10:14:47.588Z,13.08
2018-04-02T10:15:47.765Z,13.04
2018-04-02T10:16:47.939Z,13.79
2018-04-02T10:17:48.894Z,14.68
2018-04-02T10:18:48.322Z,15.59
2018-04-02T10:19:48.496Z,16.11
2018-04-02T10:20:48.677Z,16.85
2018-04-02T10:21:48.844Z,17.72
2018-04-02T10:22:49.017Z,18.14
2018-04-02T10:23:49.204Z,18.78
2018-04-02T10:24:49.365Z,20.05
2018-04-02T10:25:49.537Z,20.47
2018-04-02T10:26:49.710Z,20.64
2018-04-02T10:27:49.893Z,18.90
2018-04-02T10:28:50.064Z,18.30
2018-04-02T10:29:50.252Z,18.05
2018-04-02T10:30:50.439Z,18.03
2018-04-02T10:31:50.632Z,17.58
2018-04-02T10:32:50.829Z,17.49
2018-04-02T10:33:51.000Z,17.59
2018-04-02T10:34:51.171Z,17.82
2018-04-02T10:35:51.344Z,17.33
2018-04-02T10:36:51.550Z,16.60
2018-04-02T10:37:51.699Z,17.07
2018-04-02T10:38:51.884Z,16.43
2018-04-02T10:39:52.062Z,15.74
2018-04-02T10:40:52.248Z,15.65
2018-04-02T10:41:52.431Z,15.49
2018-04-02T10:42:52.613Z,15.62
2018-04-02T10:43:52.792Z,16.05
2018-04-02T10:44:52.968Z,16.46
2018-04-02T10:45:53.139Z,16.79
2018-04-02T10:46:53.305Z,17.34
2018-04-02T10:47:53.496Z,17.19
2018-04-02T10:48:53.670Z,17.72
2018-04-02T10:49:53.841Z,17.51
2018-04-02T10:50:54.029Z,17.81
2018-04-02T10:51:54.245Z,18.17
2018-04-02T10:52:54.369Z,17.49
2018-04-02T10:53:54.587Z,16.86
2018-04-02T10:54:54.730Z,17.55
2018-04-02T10:55:54.908Z,19.62
2018-04-02T10:56:55.082Z,18.76
2018-04-02T10:57:55.259Z,18.23
2018-04-02T10:58:55.426Z,17.33
2018-04-02T10:59:55.617Z,17.41
2018-04-02T11:00:55.780Z,17.54
2018-04-02T11:01:55.963Z,17.43
2018-04-02T11:02:56.142Z,17.11
2018-04-02T11:03:56.322Z,16.64
2018-04-02T11:04:56.540Z,17.22
2018-04-02T11:05:56.697Z,18.10
2018-04-02T11:06:57.497Z,17.03
2018-04-02T11:07:57.044Z,16.24
2018-04-02T11:08:57.219Z,16.05
2018-04-02T11:09:57.406Z,15.25
2018-04-02T11:10:57.586Z,15.16
2018-04-02T11:11:57.773Z,14.86
2018-04-02T11:12:57.933Z,14.54
2018-04-02T11:13:58.111Z,15.27
2018-04-02T11:14:58.283Z,15.68
2018-04-02T11:15:58.454Z,16.88
2018-04-02T11:16:58.630Z,18.20
2018-04-02T11:17:58.842Z,20.03
2018-04-02T11:18:58.984Z,21.47
2018-04-02T11:19:59.161Z,19.92
2018-04-02T11:20:59.350Z,20.05
2018-04-02T11:21:59.531Z,19.46
2018-04-02T11:22:59.711Z,18.12
2018-04-02T11:23:59.879Z,16.94
2018-04-02T11:25:00.064Z,16.75
2018-04-02T11:26:00.994Z,18.60
2018-04-02T11:27:00.423Z,17.49
2018-04-02T11:28:00.601Z,17.07
2018-04-02T11:29:00.795Z,17.11
2018-04-02T11:30:01.067Z,17.00
2018-04-02T11:31:01.233Z,17.66
2018-04-02T11:32:01.449Z,17.70
2018-04-02T11:33:01.558Z,18.25
2018-04-02T11:34:01.732Z,18.18
2018-04-02T11:35:01.926Z,18.18
2018-04-02T11:36:02.096Z,19.16
2018-04-02T11:37:02.307Z,21.35
2018-04-02T11:38:02.529Z,22.03
2018-04-02T11:39:02.640Z,22.47
2018-04-02T11:40:02.796Z,23.73
2018-04-02T11:41:02.975Z,23.93
2018-04-02T11:42:03.346Z,23.23
2018-04-02T11:43:03.668Z,21.72
2018-04-02T11:44:03.544Z,21.32
2018-04-02T11:45:03.684Z,21.14
2018-04-02T11:46:03.938Z,20.98
2018-04-02T11:47:04.016Z,21.80
2018-04-02T11:48:05.007Z,21.38
2018-04-02T11:49:04.426Z,21.98
2018-04-02T11:50:04.602Z,22.80
2018-04-02T11:51:04.973Z,23.04
2018-04-02T11:52:05.018Z,23.10
2018-04-02T11:53:05.220Z,22.57
2018-04-02T11:54:05.462Z,22.52
2018-04-02T11:55:05.623Z,22.79
2018-04-02T11:56:05.784Z,22.28
2018-04-02T11:57:06.153Z,21.34
2018-04-02T11:58:06.357Z,21.49
2018-04-02T11:59:06.487Z,21.38
2018-04-02T12:00:06.651Z,20.74
2018-04-02T12:01:06.582Z,20.39
2018-04-02T12:02:06.868Z,20.54
2018-04-02T12:03:07.010Z,19.76
2018-04-02T12:04:07.348Z,20.72
2018-04-02T12:05:07.546Z,20.41
2018-04-02T12:06:07.881Z,20.89
2018-04-02T12:07:08.243Z,20.35
2018-04-02T12:08:08.180Z,19.26
2018-04-02T12:09:08.654Z,18.78
2018-04-02T12:10:08.278Z,18.81
2018-04-02T12:11:08.465Z,18.27
2018-04-02T12:12:08.751Z,18.57
2018-04-02T12:13:08.984Z,18.23
2018-04-02T12:14:09.008Z,18.72
2018-04-02T12:15:09.188Z,18.92
2018-04-02T12:16:09.618Z,19.51
2018-04-02T12:17:09.740Z,20.05
2018-04-02T12:18:09.759Z,20.14
2018-04-02T12:19:10.097Z,19.04
2018-04-02T12:20:10.157Z,18.88
2018-04-02T12:21:10.544Z,18.17
2018-04-02T12:22:10.704Z,18.15
2018-04-02T12:23:10.684Z,17.72
2018-04-02T12:24:10.871Z,18.21
2018-04-02T12:25:11.044Z,17.55
2018-04-02T12:26:11.231Z,18.15
2018-04-02T12:27:11.568Z,17.95
2018-04-02T12:28:11.540Z,17.96
2018-04-02T12:29:11.918Z,17.77
2018-04-02T12:30:11.912Z,17.51
2018-04-02T12:31:12.116Z,18.36
2018-04-02T12:32:12.584Z,18.42
2018-04-02T12:33:12.403Z,17.77
2018-04-02T12:34:12.771Z,18.21
2018-04-02T12:35:12.798Z,17.66
2018-04-02T12:36:12.997Z,17.74
2018-04-02T12:37:13.308Z,17.49
2018-04-02T12:40:41.131Z,17.72
2018-04-02T12:41:40.695Z,17.70
2018-04-02T12:42:40.873Z,17.43
2018-04-02T12:43:41.102Z,17.63
2018-04-02T12:44:41.267Z,17.30
2018-04-02T12:45:41.446Z,17.95
2018-04-02T12:46:41.640Z,18.52
2018-04-02T12:47:42.114Z,18.23
2018-04-02T12:48:42.013Z,17.77
2018-04-02T12:49:42.699Z,17.56
2018-04-02T12:50:42.418Z,17.77
2018-04-02T12:51:42.558Z,17.37
2018-04-02T12:52:42.744Z,16.56
2018-04-02T12:53:42.961Z,16.91
2018-04-02T12:54:43.083Z,16.25
2018-04-02T12:55:43.275Z,16.02
2018-04-02T12:56:43.646Z,16.23
2018-04-02T12:57:43.578Z,16.28
2018-04-02T12:58:43.781Z,17.04
2018-04-02T12:59:43.926Z,16.49
2018-04-02T13:00:44.120Z,16.78
2018-04-02T13:01:44.271Z,16.43
2018-04-02T13:02:44.627Z,16.73
2018-04-02T13:03:44.899Z,16.94
2018-04-02T13:04:45.178Z,16.46
2018-04-02T13:05:45.057Z,16.34
2018-04-02T13:06:46.291Z,16.20
2018-04-02T13:07:45.581Z,16.48
2018-04-02T13:08:45.509Z,16.30
2018-04-02T13:09:46.149Z,16.45
2018-04-02T13:10:46.032Z,16.31
2018-04-02T13:11:46.219Z,16.66
2018-04-02T13:12:46.498Z,16.98
2018-04-02T13:13:46.520Z,16.93
2018-04-02T13:14:46.513Z,17.34